Time;durP1;ratioP1;P1;durP2;ratioP2;P2;SDS_P1;SDS_P2;PMS_P1;PMS_P2;Temp;Humidity;BMP_temperature;BMP_pressure;BME280_temperature;BME280_humidity;BME280_pressure;Samples;Min_cycle;Max_cycle;Signal;HPM_P1;HPM_P2
2023/08/20 00:01:24;;;;;;;;;2.50;2.25;;;;;23.57;60.83;101645.13;4994147;28;45298;-46
2023/08/20 00:03:51;;;;;;;;;3.00;3.00;;;;;23.53;60.79;101650.16;4994296;28;45246;-47
2023/08/20 00:06:17;;;;;;;;;5.20;3.20;;;;;23.54;60.61;101654.53;4994028;28;45461;-49
2023/08/20 00:08:42;;;;;;;;;4.50;2.00;;;;;23.49;60.57;101638.03;4994144;28;45476;-47
2023/08/20 00:11:09;;;;;;;;;3.00;2.00;;;;;23.49;60.69;101651.59;4993993;28;45413;-45
2023/08/20 00:13:34;;;;;;;;;2.20;2.20;;;;;;;;4994077;28;45714;-47
2023/08/20 00:16:00;;;;;;;;;5.75;2.75;;;;;23.49;60.45;101659.75;4993982;28;46510;-47
2023/08/20 00:18:26;;;;;;;;;1.75;1.75;;;;;23.40;60.70;101639.28;4993889;28;45349;-47
2023/08/20 00:20:53;;;;;;;;;3.75;2.50;;;;;23.46;60.98;101653.91;4994220;28;45300;-46
2023/08/20 00:23:18;;;;;;;;;1.50;1.50;;;;;23.41;60.90;101652.66;4955413;28;1123726;-46
2023/08/20 00:25:44;;;;;;;;;4.25;1.50;;;;;23.38;60.58;101649.50;4994922;28;47434;-47
2023/08/20 00:28:09;;;;;;;;;3.60;2.00;;;;;23.33;60.56;101643.88;4995041;28;45526;-50
2023/08/20 00:30:35;;;;;;;;;3.75;1.50;;;;;23.30;60.32;101647.88;4995407;28;45389;-46
2023/08/20 00:33:00;;;;;;;;;2.00;2.00;;;;;23.22;60.23;101656.22;4995189;28;45273;-48
2023/08/20 00:35:25;;;;;;;;;2.00;1.50;;;;;23.25;60.44;101658.50;4994889;28;46892;-46
2023/08/20 00:37:51;;;;;;;;;3.50;2.00;;;;;23.23;60.32;101659.75;4994964;28;45803;-48
2023/08/20 00:40:17;;;;;;;;;3.00;2.50;;;;;23.19;60.65;101658.50;4995233;28;45376;-47
2023/08/20 00:42:42;;;;;;;;;3.50;0.50;;;;;23.21;60.35;101662.66;4995519;28;45270;-49
2023/08/20 00:45:08;;;;;;;;;4.00;1.00;;;;;23.12;60.18;101653.91;4994574;28;45417;-47
2023/08/20 00:47:35;;;;;;;;;2.75;1.75;;;;;23.13;60.38;101652.00;4994782;28;45260;-47
2023/08/20 00:50:05;;;;;;;;;2.00;2.00;;;;;22.95;60.39;101630.91;4994998;28;45454;-51
2023/08/20 00:52:31;;;;;;;;;3.40;2.00;;;;;23.13;60.71;101671.88;4995056;28;45259;-48
2023/08/20 00:54:57;;;;;;;;;2.25;0.50;;;;;23.12;60.49;101666.63;4994615;28;45408;-48
2023/08/20 00:57:23;;;;;;;;;4.20;2.00;;;;;23.02;60.55;101658.91;4994794;28;45433;-48
2023/08/20 00:59:49;;;;;;;;;2.00;2.00;;;;;23.06;60.69;101665.59;4994807;28;45406;-49
2023/08/20 01:02:16;;;;;;;;;3.80;2.00;;;;;23.06;60.61;101676.44;4994797;28;45545;-50
2023/08/20 01:04:41;;;;;;;;;2.40;2.00;;;;;23.03;60.70;101671.44;4995928;28;46336;-48
2023/08/20 01:07:30;;;;;;;;;1.75;1.75;;;;;22.99;60.46;101669.34;4997940;28;45259;-46
2023/08/20 01:10:14;;;;;;;;;5.60;2.00;;;;;22.96;60.56;101675.16;4998088;28;45389;-48
2023/08/20 01:12:41;;;;;;;;;3.60;2.00;;;;;22.90;60.98;101672.25;4998069;28;45592;-46
2023/08/20 01:15:10;;;;;;;;;4.40;2.60;;;;;22.86;60.85;101661.97;4997762;28;46173;-46
2023/08/20 01:17:36;;;;;;;;;2.80;2.80;;;;;22.81;60.94;101665.31;4997810;28;45438;-47
2023/08/20 01:20:03;;;;;;;;;1.00;1.00;;;;;22.79;61.01;101669.25;4997243;28;45379;-46
2023/08/20 01:22:44;;;;;;;;;3.00;3.00;;;;;22.77;61.20;101674.06;4997690;28;45312;-48
2023/08/20 01:25:44;;;;;;;;;4.80;2.40;;;;;22.73;61.26;101672.78;4997434;28;46382;-47
2023/08/20 01:28:30;;;;;;;;;3.60;2.00;;;;;22.70;61.35;101668.59;4997705;28;45338;-45
2023/08/20 01:30:57;;;;;;;;;2.40;2.00;;;;;22.69;61.33;101672.38;4997710;28;45425;-46
2023/08/20 01:33:26;;;;;;;;;3.20;1.80;;;;;22.66;61.60;101673.59;4997709;28;45384;-46
2023/08/20 01:35:52;;;;;;;;;3.80;1.40;;;;;22.63;61.43;101675.91;4997629;28;46314;-47
2023/08/20 01:38:17;;;;;;;;;2.00;0.60;;;;;22.62;61.57;101677.75;4997445;28;45346;-47
2023/08/20 01:40:43;;;;;;;;;3.50;1.75;;;;;22.52;61.52;101668.34;4997714;28;45417;-47
2023/08/20 01:43:08;;;;;;;;;2.50;2.25;;;;;22.58;61.92;101679.19;4997689;28;45323;-47
2023/08/20 01:45:34;;;;;;;;;4.00;3.00;;;;;22.57;61.87;101682.13;4997173;28;46572;-48
2023/08/20 01:47:59;;;;;;;;;3.50;3.50;;;;;22.54;61.76;101688.78;4997484;28;45269;-48
2023/08/20 01:50:24;;;;;;;;;4.75;3.00;;;;;22.48;61.87;101672.50;4997475;28;45343;-45
2023/08/20 01:52:50;;;;;;;;;2.50;1.25;;;;;22.48;62.16;101669.78;4997674;28;45686;-46
2023/08/20 01:55:15;;;;;;;;;2.25;2.25;;;;;22.47;62.06;101682.50;4997198;28;47117;-47
2023/08/20 01:57:40;;;;;;;;;2.50;2.00;;;;;22.43;62.51;101675.81;4997563;28;45928;-47
2023/08/20 02:00:07;;;;;;;;;7.50;2.50;;;;;22.41;62.13;101684.13;4997455;28;45555;-47
2023/08/20 02:02:32;;;;;;;;;1.20;1.00;;;;;22.40;62.61;101674.34;4997682;28;45368;-50
2023/08/20 02:04:58;;;;;;;;;2.50;2.50;;;;;22.39;62.24;101678.09;4997269;28;45470;-47
2023/08/20 02:07:23;;;;;;;;;1.75;1.75;;;;;22.37;62.18;101677.44;4997415;28;45390;-46
2023/08/20 02:09:48;;;;;;;;;3.00;2.50;;;;;22.37;62.22;101676.63;4997508;28;45502;-50
2023/08/20 02:12:14;;;;;;;;;3.00;2.75;;;;;22.33;62.43;101676.22;4997699;28;45449;-50
2023/08/20 02:14:40;;;;;;;;;3.25;2.00;;;;;22.29;62.56;101674.06;4995560;28;47535;-47
2023/08/20 02:17:06;;;;;;;;;5.25;2.25;;;;;22.28;62.82;101675.94;4995926;28;45451;-46
2023/08/20 02:19:32;;;;;;;;;2.00;2.00;;;;;22.27;62.46;101684.28;4997268;28;45415;-51
2023/08/20 02:21:57;;;;;;;;;2.00;2.00;;;;;22.21;62.89;101676.97;4997149;28;45409;-46
2023/08/20 02:24:23;;;;;;;;;4.00;3.00;;;;;22.21;62.90;101685.13;4996388;28;45367;-50
2023/08/20 02:26:48;;;;;;;;;2.00;2.00;;;;;22.25;62.96;101687.22;4997168;28;45348;-46
2023/08/20 02:29:13;;;;;;;;;4.50;2.00;;;;;22.25;63.19;101684.50;4997103;28;45251;-49
2023/08/20 02:31:39;;;;;;;;;5.00;2.00;;;;;22.25;62.92;101687.22;4997405;28;45745;-49
2023/08/20 02:34:04;;;;;;;;;1.50;1.50;;;;;22.15;62.64;101665.88;4996687;28;46621;-46
2023/08/20 02:36:30;;;;;;;;;2.00;2.00;;;;;22.19;63.27;101676.34;4997069;28;45326;-50
2023/08/20 02:38:55;;;;;;;;;7.25;3.75;;;;;22.22;63.15;101686.78;4996895;28;45552;-51
2023/08/20 02:41:20;;;;;;;;;8.25;3.25;;;;;22.19;62.98;101676.34;4996968;28;45218;-45
2023/08/20 02:43:46;;;;;;;;;4.50;1.75;;;;;22.17;62.71;101676.53;4996861;28;46283;-47
2023/08/20 02:46:11;;;;;;;;;6.00;2.50;;;;;22.17;62.88;101676.53;4996824;28;45491;-48
2023/08/20 02:48:36;;;;;;;;;2.00;2.00;;;;;22.14;63.19;101677.75;4995959;28;45466;-46
2023/08/20 02:51:02;;;;;;;;;5.00;3.00;;;;;22.12;63.40;101678.97;4997199;28;45328;-45
2023/08/20 02:53:28;;;;;;;;;5.00;1.50;;;;;22.13;63.47;101683.41;4996982;28;46362;-45
2023/08/20 02:55:53;;;;;;;;;6.50;3.75;;;;;22.12;63.21;101685.28;4996683;28;45313;-47
2023/08/20 02:58:18;;;;;;;;;2.00;2.00;;;;;22.11;63.51;101671.88;4997083;28;45404;-47
2023/08/20 03:00:44;;;;;;;;;2.00;2.00;;;;;22.12;63.52;101674.44;4997182;28;45369;-47
2023/08/20 03:03:11;;;;;;;;;4.00;3.00;;;;;22.11;63.15;101675.41;4996557;28;46348;-49
2023/08/20 03:05:36;;;;;;;;;2.00;2.00;;;;;22.06;63.33;101669.78;4996492;28;45580;-50
2023/08/20 03:08:03;;;;;;;;;3.25;3.25;;;;;22.13;62.91;101672.56;4996964;28;45649;-48
2023/08/20 03:10:29;;;;;;;;;3.60;2.40;;;;;22.11;63.34;101670.00;4995625;28;45494;-48
2023/08/20 03:12:55;;;;;;;;;4.00;3.60;;;;;22.11;63.07;101667.28;4996498;28;45437;-46
2023/08/20 03:15:20;;;;;;;;;4.50;3.75;;;;;22.10;63.27;101668.34;4996551;28;45362;-49
2023/08/20 03:17:45;;;;;;;;;5.00;4.50;;;;;22.08;63.41;101670.41;4996451;28;45313;-49
2023/08/20 03:20:11;;;;;;;;;4.50;3.75;;;;;22.09;63.49;101679.38;4996563;28;45508;-51
2023/08/20 03:22:38;;;;;;;;;7.25;3.50;;;;;22.04;63.35;101668.31;4996107;28;45443;-50
2023/08/20 03:25:04;;;;;;;;;3.80;3.80;;;;;22.02;63.45;101671.19;4996885;28;45500;-48
2023/08/20 03:27:30;;;;;;;;;3.60;3.40;;;;;22.01;63.66;101669.53;4996472;28;45377;-49
2023/08/20 03:29:55;;;;;;;;;6.00;3.00;;;;;21.95;63.71;101670.31;4996635;28;45505;-49
2023/08/20 03:32:21;;;;;;;;;2.00;2.00;;;;;21.94;63.27;101676.78;4996556;28;46145;-45
2023/08/20 03:34:47;;;;;;;;;4.80;3.40;;;;;21.90;63.92;101672.78;4996301;28;45423;-44
2023/08/20 03:37:12;;;;;;;;;4.00;3.00;;;;;21.88;63.98;101677.59;4996724;28;45286;-46
2023/08/20 03:39:38;;;;;;;;;3.00;1.75;;;;;21.86;64.14;101669.63;4996809;28;45385;-48
2023/08/20 03:42:03;;;;;;;;;4.00;3.50;;;;;21.84;64.16;101665.47;4995504;28;46289;-46
2023/08/20 03:44:29;;;;;;;;;2.00;2.00;;;;;21.82;64.19;101672.94;4995745;28;45412;-47
2023/08/20 03:46:55;;;;;;;;;2.40;2.40;;;;;21.80;64.29;101669.63;4996110;28;45192;-47
2023/08/20 03:49:20;;;;;;;;;4.25;2.00;;;;;21.77;64.24;101668.13;4996307;28;45424;-47
2023/08/20 03:51:45;;;;;;;;;2.75;2.75;;;;;21.76;64.25;101673.75;4996126;28;45799;-46
2023/08/20 03:54:11;;;;;;;;;2.00;2.00;;;;;21.76;64.74;101681.88;4995977;28;45434;-49
2023/08/20 03:56:36;;;;;;;;;3.00;1.25;;;;;21.67;64.64;101664.94;4996013;28;45498;-48
2023/08/20 03:59:02;;;;;;;;;1.75;1.75;;;;;21.72;64.77;101672.47;4996111;28;45473;-51
2023/08/20 04:01:27;;;;;;;;;6.50;3.50;;;;;21.73;64.95;101680.38;4996163;28;46152;-51
2023/08/20 04:03:53;;;;;;;;;3.00;3.00;;;;;21.73;64.98;101679.56;4995882;28;45448;-52
2023/08/20 04:06:18;;;;;;;;;4.75;3.00;;;;;21.73;64.58;101683.09;4996301;28;45527;-52
2023/08/20 04:08:43;;;;;;;;;2.50;2.50;;;;;21.72;64.96;101689.56;4996324;28;45289;-53
2023/08/20 04:11:09;;;;;;;;;5.50;2.50;;;;;21.69;64.56;101681.81;4995830;28;45285;-48
2023/08/20 04:13:34;;;;;;;;;2.00;2.00;;;;;21.70;65.17;101688.06;4996122;28;45418;-51
2023/08/20 04:16:00;;;;;;;;;2.50;1.25;;;;;21.60;65.19;101677.59;4995853;28;45542;-49
2023/08/20 04:18:25;;;;;;;;;4.00;4.00;;;;;21.68;65.16;101688.28;4996219;28;45407;-52
2023/08/20 04:20:52;;;;;;;;;3.25;3.00;;;;;21.66;65.28;101693.06;4995819;28;47190;-47
2023/08/20 04:23:18;;;;;;;;;3.00;2.00;;;;;21.65;65.47;101689.50;4995742;28;45337;-49
2023/08/20 04:25:44;;;;;;;;;2.50;2.50;;;;;21.67;65.45;101698.28;4994650;28;45490;-51
2023/08/20 04:28:10;;;;;;;;;2.00;2.00;;;;;21.67;65.28;101702.84;4996241;28;45312;-49
2023/08/20 04:30:36;;;;;;;;;3.75;3.00;;;;;21.66;65.65;101701.19;4995412;28;46289;-49
2023/08/20 04:33:01;;;;;;;;;3.00;2.50;;;;;21.68;65.91;101709.94;4995821;28;45394;-47
2023/08/20 04:35:26;;;;;;;;;3.75;3.00;;;;;21.68;65.79;101713.47;4995986;28;45433;-51
2023/08/20 04:37:52;;;;;;;;;6.25;3.25;;;;;21.71;65.45;101703.31;4996089;28;45393;-49
2023/08/20 04:40:17;;;;;;;;;2.00;2.00;;;;;21.74;65.29;101703.72;4997906;28;46129;-51
2023/08/20 04:42:42;;;;;;;;;2.50;2.50;;;;;21.77;65.09;101710.63;4998907;28;45378;-47
2023/08/20 04:45:08;;;;;;;;;2.75;2.00;;;;;21.76;64.93;101701.66;4999171;28;45468;-52
2023/08/20 04:47:34;;;;;;;;;3.25;3.00;;;;;21.79;65.65;101706.69;4999026;28;45338;-47
2023/08/20 04:49:59;;;;;;;;;5.00;3.25;;;;;21.80;65.58;101704.81;4998466;28;46726;-46
2023/08/20 04:52:25;;;;;;;;;4.25;4.25;;;;;21.82;64.94;101706.28;4998726;28;45496;-46
2023/08/20 04:54:50;;;;;;;;;3.00;3.00;;;;;21.76;65.27;101701.66;4998771;28;45397;-48
2023/08/20 04:57:16;;;;;;;;;4.75;3.50;;;;;21.79;65.45;101716.69;4999031;28;45557;-45
2023/08/20 04:59:44;;;;;;;;;4.75;4.75;;;;;21.78;65.01;101710.41;4998596;28;46286;-47
2023/08/20 05:02:13;;;;;;;;;3.00;3.00;;;;;21.73;65.15;101706.63;4998569;28;45361;-47
2023/08/20 05:04:38;;;;;;;;;3.00;3.00;;;;;21.73;65.30;101702.06;4998631;28;45414;-47
2023/08/20 05:07:04;;;;;;;;;3.00;3.00;;;;;21.80;65.53;101715.66;4998871;28;45532;-46
2023/08/20 05:09:29;;;;;;;;;5.50;3.50;;;;;21.77;65.32;101718.75;4998743;28;45442;-46
2023/08/20 05:11:55;;;;;;;;;8.25;8.25;;;;;21.80;65.66;101712.94;4998472;28;45443;-46
2023/08/20 05:14:20;;;;;;;;;25.00;20.75;;;;;21.78;65.41;101715.84;4998702;28;45413;-47
2023/08/20 05:16:45;;;;;;;;;7.00;6.00;;;;;21.76;65.56;101717.09;4998650;28;45468;-46
2023/08/20 05:19:11;;;;;;;;;14.00;11.00;;;;;21.60;65.62;101694.66;4998419;28;45421;-51
2023/08/20 05:21:36;;;;;;;;;7.25;7.00;;;;;21.72;65.55;101711.22;4996911;28;46394;-50
2023/08/20 05:24:02;;;;;;;;;8.25;4.50;;;;;21.80;65.41;101721.91;4998332;28;45338;-48
2023/08/20 05:26:27;;;;;;;;;4.00;4.00;;;;;21.81;66.12;101730.88;4998648;28;45279;-48
2023/08/20 05:28:52;;;;;;;;;6.00;4.00;;;;;21.83;65.84;101717.97;4998181;28;46195;-45
2023/08/20 05:31:18;;;;;;;;;4.25;3.00;;;;;21.64;65.43;101693.25;4997773;28;45234;-47
2023/08/20 05:33:43;;;;;;;;;4.25;4.00;;;;;21.85;65.49;101732.16;4998378;28;45337;-48
2023/08/20 05:36:08;;;;;;;;;6.00;3.50;;;;;21.88;65.64;101734.47;4998526;28;45199;-48
2023/08/20 05:38:34;;;;;;;;;5.00;3.00;;;;;21.88;65.73;101732.59;4998038;28;46091;-47
2023/08/20 05:40:59;;;;;;;;;4.25;2.50;;;;;21.91;65.87;101731.34;4998148;28;45392;-47
2023/08/20 05:43:24;;;;;;;;;3.50;3.50;;;;;21.92;65.58;101733.03;4997950;28;45366;-47
2023/08/20 05:45:50;;;;;;;;;5.00;3.75;;;;;21.87;65.22;101722.81;4998117;28;45390;-49
2023/08/20 05:48:15;;;;;;;;;4.00;4.00;;;;;21.92;65.50;101733.03;4998068;28;46086;-48
2023/08/20 05:50:41;;;;;;;;;3.50;3.50;;;;;21.93;65.11;101735.53;4997875;28;45433;-49
2023/08/20 05:53:06;;;;;;;;;2.00;2.00;;;;;21.97;64.99;101740.56;4998208;28;45445;-47
2023/08/20 05:55:31;;;;;;;;;7.25;4.00;;;;;21.92;64.88;101735.75;4998131;28;45430;-48
2023/08/20 05:57:57;;;;;;;;;3.25;3.25;;;;;21.93;65.44;101737.41;4997888;28;45339;-49
2023/08/20 06:00:22;;;;;;;;;5.00;3.00;;;;;21.96;65.30;101734.31;4997754;28;45397;-45
2023/08/20 06:02:47;;;;;;;;;5.75;5.75;;;;;22.01;65.16;101741.84;4998014;28;45344;-47
2023/08/20 06:05:13;;;;;;;;;3.25;2.50;;;;;22.03;65.36;101745.19;4998171;28;45424;-46
2023/08/20 06:07:39;;;;;;;;;3.50;3.50;;;;;22.06;65.08;101742.94;4997628;28;47009;-47
2023/08/20 06:10:05;;;;;;;;;4.40;2.40;;;;;22.05;65.16;101738.56;4997821;28;45467;-47
2023/08/20 06:12:30;;;;;;;;;2.40;2.00;;;;;22.08;64.96;101748.13;4997649;28;45324;-44
2023/08/20 06:14:56;;;;;;;;;3.00;3.00;;;;;22.08;65.07;101754.41;4997919;28;45381;-49
2023/08/20 06:17:21;;;;;;;;;6.00;4.00;;;;;22.11;65.15;101759.44;4996987;28;45968;-48
2023/08/20 06:19:46;;;;;;;;;6.50;4.00;;;;;22.11;65.19;101764.00;4997534;28;45362;-48
2023/08/20 06:22:12;;;;;;;;;5.75;5.75;;;;;22.14;65.34;101758.22;4997519;28;45440;-50
2023/08/20 06:24:37;;;;;;;;;3.50;3.50;;;;;22.17;65.20;101752.44;4997565;28;45399;-48
2023/08/20 06:27:03;;;;;;;;;5.50;3.25;;;;;22.23;65.42;101762.47;4997519;28;46980;-46
2023/08/20 06:29:28;;;;;;;;;7.25;4.50;;;;;22.28;65.18;101764.56;4997303;28;45183;-50
2023/08/20 06:31:53;;;;;;;;;3.25;3.25;;;;;22.34;65.25;101767.34;4997493;28;45371;-46
2023/08/20 06:34:18;;;;;;;;;5.25;3.50;;;;;22.39;65.09;101774.88;4997987;28;45369;-49
2023/08/20 06:36:44;;;;;;;;;3.75;3.75;;;;;22.41;65.20;101759.22;4997460;28;45512;-47
2023/08/20 06:39:09;;;;;;;;;3.50;3.50;;;;;22.43;64.81;101765.28;4997401;28;45418;-45
2023/08/20 06:41:35;;;;;;;;;5.25;4.00;;;;;22.29;64.84;101733.72;4997421;28;45381;-46
2023/08/20 06:44:01;;;;;;;;;2.00;2.00;;;;;22.50;64.68;101760.75;4997681;28;45315;-46
2023/08/20 06:46:26;;;;;;;;;4.00;4.00;;;;;22.53;65.00;101765.75;4995727;28;46372;-48
2023/08/20 06:48:52;;;;;;;;;4.00;4.00;;;;;22.59;64.74;101751.41;4997108;28;45542;-49
2023/08/20 06:51:21;;;;;;;;;5.00;3.75;;;;;22.71;64.75;101758.94;4997308;28;45349;-49
2023/08/20 06:53:47;;;;;;;;;6.20;4.00;;;;;22.79;64.86;101767.75;4997436;28;45548;-50
2023/08/20 06:56:12;;;;;;;;;4.00;2.50;;;;;22.88;64.59;101773.81;4996740;28;47312;-48
2023/08/20 06:58:41;;;;;;;;;4.25;4.25;;;;;22.95;64.24;101761.16;4996776;28;45373;-49
2023/08/20 07:01:07;;;;;;;;;3.20;3.00;;;;;23.07;63.98;101767.69;4997015;28;45534;-48
2023/08/20 07:03:42;;;;;;;;;3.50;3.00;;;;;23.26;63.56;101770.63;4996369;28;45464;-49
2023/08/20 07:06:09;;;;;;;;;4.40;4.00;;;;;23.49;63.47;101762.13;4996472;28;47292;-48
2023/08/20 07:08:36;;;;;;;;;3.40;3.00;;;;;24.06;62.18;101764.25;4996608;28;45424;-48
2023/08/20 07:11:02;;;;;;;;;3.40;3.00;;;;;25.38;58.27;101767.53;4996800;28;45252;-48
2023/08/20 07:13:27;;;;;;;;;5.50;3.25;;;;;26.95;55.00;101769.97;4997033;28;45353;-47
2023/08/20 07:15:52;;;;;;;;;6.00;3.00;;;;;28.20;51.21;101763.59;4996467;28;45456;-48
2023/08/20 07:18:18;;;;;;;;;4.00;4.00;;;;;29.17;49.88;101762.91;4996882;28;45438;-46
2023/08/20 07:20:44;;;;;;;;;6.25;3.00;;;;;29.90;47.48;101767.44;4996585;28;45339;-47
2023/08/20 07:23:10;;;;;;;;;6.00;5.25;;;;;30.62;46.26;101755.53;4996580;28;45259;-48
2023/08/20 07:25:40;;;;;;;;;8.40;6.00;;;;;31.24;45.17;101762.56;4996440;28;45341;-46
2023/08/20 07:28:08;;;;;;;;;3.20;2.40;;;;;31.87;42.96;101760.13;4996383;28;45571;-43
2023/08/20 07:30:34;;;;;;;;;4.40;4.40;;;;;32.41;42.49;101757.16;4996582;28;45337;-46
2023/08/20 07:32:59;;;;;;;;;3.20;3.20;;;;;32.89;42.31;101768.88;4996615;28;45340;-46
2023/08/20 07:35:24;;;;;;;;;4.00;2.25;;;;;32.96;40.90;101767.56;4996361;28;46043;-50
2023/08/20 07:37:50;;;;;;;;;4.00;4.00;;;;;33.13;41.60;101760.97;4996363;28;45436;-49
2023/08/20 07:40:15;;;;;;;;;2.00;2.00;;;;;32.98;40.42;101754.31;4996530;28;45398;-43
2023/08/20 07:42:41;;;;;;;;;8.50;4.00;;;;;33.07;40.79;101751.84;4996045;28;45426;-46
2023/08/20 07:45:07;;;;;;;;;5.75;3.25;;;;;33.29;41.22;101754.38;4996139;28;45936;-49
2023/08/20 07:47:33;;;;;;;;;3.00;3.00;;;;;33.53;40.19;101751.91;4996156;28;45480;-49
2023/08/20 07:49:58;;;;;;;;;3.40;2.60;;;;;33.67;40.00;101754.94;4995865;28;45396;-49
2023/08/20 07:52:24;;;;;;;;;2.50;2.00;;;;;33.88;40.47;101753.81;4996613;28;45376;-45
2023/08/20 07:54:49;;;;;;;;;3.00;3.00;;;;;34.08;39.99;101764.00;4996202;28;45505;-50
2023/08/20 07:57:15;;;;;;;;;3.00;3.00;;;;;34.12;39.53;101765.09;4996045;28;45469;-50
2023/08/20 07:59:40;;;;;;;;;4.00;3.00;;;;;34.17;39.62;101761.47;4996307;28;45444;-48
2023/08/20 08:02:05;;;;;;;;;3.25;3.25;;;;;34.20;39.39;101764.50;4996146;28;45535;-49
2023/08/20 08:04:31;;;;;;;;;6.00;4.00;;;;;34.44;39.07;101761.13;4996181;28;45492;-47
2023/08/20 08:06:56;;;;;;;;;3.00;3.00;;;;;34.87;38.05;101769.78;4996213;28;45329;-47
2023/08/20 08:09:31;;;;;;;;;3.00;3.00;;;;;35.13;38.15;101765.75;4996112;28;45398;-49
2023/08/20 08:11:58;;;;;;;;;7.60;4.60;;;;;35.55;37.36;101760.75;4996233;28;45354;-50
2023/08/20 08:14:23;;;;;;;;;4.00;3.20;;;;;36.20;36.63;101759.28;4996481;28;46075;-51
2023/08/20 08:16:50;;;;;;;;;3.00;3.00;;;;;37.35;35.19;101769.38;4999415;28;45238;-47
2023/08/20 08:19:15;;;;;;;;;3.80;3.60;;;;;39.14;32.76;101758.31;4999593;28;45270;-46
2023/08/20 08:21:41;;;;;;;;;4.75;4.25;;;;;41.06;30.00;101766.34;4999780;28;45371;-47
2023/08/20 08:24:07;;;;;;;;;4.25;3.25;;;;;42.59;27.83;101780.50;4998825;28;46290;-47
2023/08/20 08:26:35;;;;;;;;;4.00;4.00;;;;;43.70;26.71;101774.28;4999252;28;45424;-50
2023/08/20 08:29:00;;;;;;;;;4.20;2.80;;;;;44.70;25.27;101777.56;4999413;28;45397;-47
2023/08/20 08:31:25;;;;;;;;;4.25;3.00;;;;;45.39;24.44;101789.59;4999356;28;45476;-48
2023/08/20 08:33:51;;;;;;;;;4.00;3.75;;;;;45.92;23.38;101783.78;4999049;28;45469;-49
2023/08/20 08:36:16;;;;;;;;;7.00;3.00;;;;;46.42;23.42;101794.25;4999227;28;45468;-49
2023/08/20 08:38:43;;;;;;;;;6.00;4.75;;;;;47.23;23.26;101794.41;4999418;28;45413;-49
2023/08/20 08:41:11;;;;;;;;;4.60;4.20;;;;;48.01;22.09;101799.09;4999419;28;45398;-45
2023/08/20 08:43:40;;;;;;;;;4.80;2.40;;;;;48.69;21.18;101790.44;4998818;28;45810;-49
2023/08/20 08:46:08;;;;;;;;;6.20;5.60;;;;;48.98;20.99;101782.38;4999179;28;45476;-49
2023/08/20 08:48:36;;;;;;;;;3.00;2.00;;;;;49.48;20.24;101791.44;4999021;28;45185;-46
2023/08/20 08:51:02;;;;;;;;;3.00;3.00;;;;;50.10;18.99;101787.91;4999230;28;45310;-47
2023/08/20 08:53:29;;;;;;;;;2.75;2.75;;;;;50.63;19.55;101787.47;4998857;28;46126;-48
2023/08/20 08:55:55;;;;;;;;;4.20;4.20;;;;;50.62;18.28;101792.31;4998855;28;45383;-48
2023/08/20 08:58:20;;;;;;;;;3.25;3.00;;;;;50.81;18.15;101793.19;4999056;28;45405;-49
2023/08/20 09:00:46;;;;;;;;;3.00;2.00;;;;;51.58;18.49;101789.00;4999158;28;45552;-48
2023/08/20 09:03:11;;;;;;;;;4.25;4.25;;;;;52.20;17.33;101779.19;4998420;28;45415;-50
2023/08/20 09:05:50;;;;;;;;;1.75;1.75;;;;;52.56;17.92;101787.69;4997175;28;45453;-47
2023/08/20 09:08:20;;;;;;;;;3.00;3.00;;;;;52.94;17.26;101776.56;4998685;28;45334;-50
2023/08/20 09:10:45;;;;;;;;;3.25;3.25;;;;;53.13;16.90;101778.06;4999118;28;45342;-51
2023/08/20 09:13:11;;;;;;;;;2.33;2.33;;;;;53.43;16.82;101766.88;4998396;28;46144;-48
2023/08/20 09:15:36;;;;;;;;;3.33;3.33;;;;;54.03;16.65;101764.75;4998635;28;45357;-48
2023/08/20 09:18:03;;;;;;;;;6.00;4.67;;;;;54.38;15.51;101765.59;4997306;28;45478;-50
2023/08/20 09:20:36;;;;;;;;;2.25;2.25;;;;;54.24;15.67;101761.69;4998589;28;45536;-51
2023/08/20 09:23:01;;;;;;;;;4.00;4.00;;;;;54.23;15.58;101750.72;4997367;28;48504;-51
2023/08/20 09:25:27;;;;;;;;;6.67;4.00;;;;;54.63;15.40;101745.38;4997775;28;45464;-49
2023/08/20 09:27:54;;;;;;;;;3.33;3.00;;;;;55.22;15.48;101747.78;4998402;28;45381;-47
2023/08/20 09:30:23;;;;;;;;;3.50;3.00;;;;;55.72;14.58;101746.94;4998692;28;45422;-51
2023/08/20 09:33:11;;;;;;;;;4.50;3.75;;;;;55.83;14.64;101747.56;4998395;28;46546;-48
2023/08/20 09:35:37;;;;;;;;;2.00;1.75;;;;;55.13;14.94;101741.81;4998126;28;45460;-52
2023/08/20 09:38:05;;;;;;;;;4.00;4.00;;;;;55.82;15.09;101750.84;4998362;28;45445;-49
2023/08/20 09:40:31;;;;;;;;;3.00;3.00;;;;;56.25;15.66;101745.13;4998557;28;45419;-48
2023/08/20 09:42:57;;;;;;;;;4.67;4.67;;;;;56.58;14.49;101745.25;4998208;28;46801;-51
2023/08/20 09:45:25;;;;;;;;;3.75;3.75;;;;;56.71;14.13;101749.03;4998190;28;45410;-49
2023/08/20 09:47:55;;;;;;;;;3.50;2.50;;;;;56.76;14.30;101757.91;4998078;28;45393;-49
2023/08/20 09:50:22;;;;;;;;;4.00;2.00;;;;;56.99;13.01;101748.38;4998583;28;45307;-50
2023/08/20 09:53:01;;;;;;;;;3.00;3.00;;;;;57.11;15.23;101748.97;4997757;28;46149;-51
2023/08/20 09:55:38;;;;;;;;;2.75;2.75;;;;;56.89;13.36;101749.44;4997755;28;45365;-52
2023/08/20 09:58:05;;;;;;;;;3.25;3.25;;;;;57.09;13.09;101752.25;4997995;28;45393;-51
2023/08/20 10:00:31;;;;;;;;;3.00;3.00;;;;;57.36;12.88;101743.44;4998050;28;45224;-53
2023/08/20 10:02:57;;;;;;;;;3.00;3.00;;;;;57.66;13.00;101739.41;4997561;28;45571;-53
2023/08/20 10:05:23;;;;;;;;;2.75;2.75;;;;;57.79;12.77;101742.31;4997871;28;45400;-50
2023/08/20 10:07:49;;;;;;;;;3.00;1.75;;;;;57.93;13.06;101741.09;4997872;28;45394;-52
2023/08/20 10:10:16;;;;;;;;;4.75;3.25;;;;;57.97;12.96;101736.09;4997964;28;45613;-51
2023/08/20 10:12:44;;;;;;;;;3.00;3.00;;;;;58.07;12.74;101739.91;4997642;28;47444;-51
2023/08/20 10:15:12;;;;;;;;;3.00;3.00;;;;;58.31;12.33;101735.53;4997651;28;45506;-52
2023/08/20 10:17:39;;;;;;;;;6.50;3.75;;;;;58.24;12.70;101738.59;4997532;28;45414;-49
2023/08/20 10:20:05;;;;;;;;;6.00;3.00;;;;;57.39;13.24;101728.22;4997549;28;45445;-48
2023/08/20 10:22:44;;;;;;;;;3.00;3.00;;;;;56.10;13.62;101730.34;4997308;28;46274;-49
2023/08/20 10:25:11;;;;;;;;;3.25;3.25;;;;;56.79;14.65;101732.56;4997447;28;45234;-52
2023/08/20 10:27:39;;;;;;;;;2.50;2.50;;;;;57.22;13.24;101724.53;4997474;28;45615;-49
2023/08/20 10:30:17;;;;;;;;;4.00;3.25;;;;;57.58;13.10;101720.78;4997640;28;45403;-51
2023/08/20 10:32:58;;;;;;;;;3.20;2.80;;;;;57.38;13.36;101722.97;4996953;28;46104;-52
2023/08/20 10:35:38;;;;;;;;;3.80;2.20;;;;;57.83;13.20;101727.91;4997194;28;45588;-48
2023/08/20 10:38:04;;;;;;;;;4.25;3.00;;;;;57.70;11.82;101711.47;4996468;28;45344;-52
2023/08/20 10:40:49;;;;;;;;;2.75;2.75;;;;;56.74;12.65;101719.59;4997609;28;45341;-52
2023/08/20 10:43:31;;;;;;;;;3.00;3.00;;;;;57.21;13.16;101716.41;4997136;28;47411;-53
2023/08/20 10:46:15;;;;;;;;;3.00;2.00;;;;;55.08;13.73;101713.75;4997147;28;45468;-51
2023/08/20 10:48:40;;;;;;;;;3.25;3.25;;;;;55.56;14.56;101704.84;4997078;28;45403;-51
2023/08/20 10:51:16;;;;;;;;;3.00;3.00;;;;;56.32;14.08;101713.53;4997611;28;45383;-50
2023/08/20 10:53:48;;;;;;;;;3.80;3.80;;;;;56.11;13.74;101711.94;4996930;28;46692;-48
2023/08/20 10:56:15;;;;;;;;;3.00;3.00;;;;;56.32;14.30;101716.41;4996949;28;45404;-50
2023/08/20 10:58:43;;;;;;;;;4.20;4.20;;;;;56.76;13.46;101717.09;4997201;28;45310;-50
2023/08/20 11:01:22;;;;;;;;;3.00;3.00;;;;;57.10;14.40;101701.56;4997087;28;45209;-47
2023/08/20 11:03:50;;;;;;;;;3.00;2.00;;;;;57.20;12.19;101697.66;4996791;28;45403;-56
2023/08/20 11:06:17;;;;;;;;;2.60;2.60;;;;;57.39;12.39;101696.75;4997050;28;45318;-47
2023/08/20 11:08:43;;;;;;;;;2.20;2.20;;;;;57.57;12.83;101702.00;4997065;28;45370;-51
2023/08/20 11:11:10;;;;;;;;;6.20;4.00;;;;;57.56;11.94;101700.38;4997169;28;45444;-49
2023/08/20 11:13:35;;;;;;;;;3.00;3.00;;;;;57.37;13.85;101690.69;4994975;28;48075;-48
2023/08/20 11:16:05;;;;;;;;;3.75;3.00;;;;;56.90;13.89;101698.81;4996789;28;45337;-48
2023/08/20 11:18:32;;;;;;;;;4.20;3.60;;;;;56.88;13.42;101693.50;4996657;28;45365;-48
2023/08/20 11:20:58;;;;;;;;;3.80;3.80;;;;;57.10;12.70;101690.94;4996865;28;45519;-49
2023/08/20 11:23:24;;;;;;;;;2.75;1.50;;;;;56.92;12.90;101697.09;4996044;28;45325;-49
2023/08/20 11:25:50;;;;;;;;;2.00;2.00;;;;;56.91;12.73;101694.69;4996764;28;45330;-47